Paya Lebar Airport (QPG/WSAP)




Flight Aircraft Arriving
CMB7744 B752
FJDG - Diego Garcia
United Kingdom Diego Garcia, United Kingdom
CMB7751 B752
RJTY - Yokota AFB
Japan Fussa, Japan
Flight Aircraft Departing
CMB7749 B752
FJDG - Diego Garcia
United Kingdom Diego Garcia, United Kingdom
CMB7752 B752
RJTY - Yokota AFB
Japan Fussa, Japan
Airport Information
Location: Singapore, SG
Coordinates: 1.35572 / 103.903
Elevation:
Time Offset:
Local Time:
UTC Time:
Jet A Price: $0.95/lbs

Current Weather
METAR:
Warning: file_get_contents(https://api.aviationapi.com/v1/weather/metar?apt=WSAP): failed to open stream: HTTP request failed! HTTP/1.1 500 Internal Server Error in /var/www/capitollogistics/lib/skins/urban/hub/aptview.php on line 198
TAF: TAF WSAP 051100Z 0512/0618 01010KT 9999 FEW015 SCT020 TEMPO 0606/0609 4000 SHRA FEW012 BKN015

Recent Arrivals
Date Flight Type Depart
07/15/2019 CMB849 B752 Diego Garcia (FJDG)
03/13/2019 CMB849 B752 Diego Garcia (FJDG)
Recent Departures
Date Flight Type Arrive
07/19/2019 CMB851 B752 Yokota AFB (RJTY)
03/14/2019 CMB851 B752 Yokota AFB (RJTY)